Statia Reliant — V7UC9 — position and weather

sailwx.info

Track history (hours):
 
Tides and Currents Weather Stations Pressure Air Temp Water Temp Dewpoint Dewpoint Depression Visibility Wind Speed Wind Dir Waves Ship Positions

Statia Reliant

Last reported at 2018-May-25 02:15 UTC. Time now 2018-May-25 02:47 UTC.
Position N 17°16' W 062°45'.

Length 27 m; draft 4 m.

Type: Tug. MMSI: 538003903.

Date/timePositionNaut miles runAvg speedWind from/ knotsBaromVisibWave heightAir tempDewpointWater temp
2018-May-25 02:15N 17°16' W 062°45'1 3.8
2018-May-25 01:58N 17°16' W 062°46'19 4.9
2018-May-24 22:10N 17°29' W 063°00'0 0.0
2018-May-24 21:48N 17°29' W 063°00'1 0.2
2018-May-24 17:38N 17°30' W 063°00'1 3.4
2018-May-24 17:27N 17°29' W 063°00'0 0.3
2018-May-24 16:21N 17°29' W 063°00'0 0.0
2018-May-24 16:00N 17°29' W 063°00'0 0.7
2018-May-24 15:27N 17°29' W 062°60'1 1.2
2018-May-24 14:59N 17°29' W 062°59'0 0.0
2018-May-24 14:25N 17°29' W 062°59'1 0.2
2018-May-24 08:47N 17°29' W 063°00'0 0.0
2018-May-24 08:24N 17°29' W 063°00'1 1.2
2018-May-24 07:31N 17°30' W 063°01'1 2.1
2018-May-24 07:10N 17°29' W 063°01'0 1.2
2018-May-24 06:57N 17°29' W 063°00'0 0.0
2018-May-24 05:45N 17°29' W 063°00'0 0.1
2018-May-24 05:24N 17°29' W 063°00'1 0.4
2018-May-24 04:02N 17°29' W 063°00'0 0.0
2018-May-24 04:00N 17°29' W 063°00'0 0.0
2018-May-24 03:14N 17°29' W 063°00'0 0.1
2018-May-24 03:00N 17°29' W 063°00'0 0.0
2018-May-23 22:21N 17°29' W 063°00'0 0.0
2018-May-23 21:54N 17°29' W 063°00'0 1.1
2018-May-23 21:30N 17°29' W 063°00'0 0.4
2018-May-23 20:58N 17°29' W 063°00'0 0.0
2018-May-23 20:17N 17°29' W 063°00'0 0.0
2018-May-23 19:55N 17°29' W 063°00'0 0.0
2018-May-23 19:25N 17°29' W 063°00'0 0.8
2018-May-23 18:49N 17°29' W 063°00'0 0.0
2018-May-23 18:16N 17°29' W 063°00'0 0.0
2018-May-23 18:00N 17°29' W 063°00'0 0.0
2018-May-23 17:20N 17°29' W 063°00'0 0.0
2018-May-23 16:39N 17°29' W 063°00'0 0.0
2018-May-23 16:22N 17°29' W 063°00'0 0.0
2018-May-23 15:59N 17°29' W 063°00'0 0.0
2018-May-23 14:55N 17°29' W 063°00'0 0.1
2018-May-23 13:23N 17°29' W 063°00'0 0.1
2018-May-23 12:51N 17°29' W 063°00'0 0.0
2018-May-23 12:28N 17°29' W 063°00'0 0.0
2018-May-23 11:21N 17°29' W 063°00'0 0.1
2018-May-23 10:27N 17°29' W 063°00'0 0.6
2018-May-23 09:51N 17°29' W 063°00'0 0.0
2018-May-23 09:27N 17°29' W 063°00'0 0.0
2018-May-23 09:00N 17°29' W 063°00'0 0.0
2018-May-23 08:29N 17°29' W 063°00'0 0.0
2018-May-23 07:55N 17°29' W 063°00'0 0.0
2018-May-23 07:13N 17°29' W 063°00'0 0.0
2018-May-23 06:42N 17°29' W 063°00'0 0.1
2018-May-23 06:24N 17°29' W 063°00'0 0.6
2018-May-23 05:51N 17°29' W 063°00'0 0.2
2018-May-23 05:00N 17°29' W 063°00'0 0.0
2018-May-23 04:17N 17°29' W 063°00'0 0.0
2018-May-23 03:55N 17°29' W 063°00'0 0.7
2018-May-23 03:26N 17°29' W 063°00'0 0.0
2018-May-23 00:14N 17°29' W 063°00'0 0.0
2018-May-22 23:58N 17°29' W 063°00'0 0.0
2018-May-22 22:59N 17°29' W 063°00'0 0.0
2018-May-22 22:18N 17°29' W 063°00'0 0.0
2018-May-22 21:59N 17°29' W 063°00'0 0.0
2018-May-22 21:19N 17°29' W 063°00'0 0.1
2018-May-22 20:58N 17°29' W 063°00'0 0.0
2018-May-22 20:17N 17°29' W 063°00'0 0.0
2018-May-22 19:21N 17°29' W 063°00'0 0.3
2018-May-22 18:04N 17°30' W 063°01'1 0.2
2018-May-22 14:10N 17°29' W 063°01'0 0.1
2018-May-22 13:53N 17°29' W 063°01'0 0.0
2018-May-22 12:28N 17°29' W 063°01'0 0.0
2018-May-22 10:16N 17°29' W 063°01'0 0.0
2018-May-22 08:21N 17°29' W 063°01'0 0.0
2018-May-22 07:45N 17°29' W 063°01'0 0.0
2018-May-22 07:25N 17°29' W 063°01'0 0.0
2018-May-22 06:04N 17°29' W 063°01'0 0.1
2018-May-22 05:55N 17°29' W 063°01'0 0.0
2018-May-22 04:28N 17°29' W 063°01'0 0.0
2018-May-22 00:07N 17°29' W 063°01'0 0.1
2018-May-21 23:41N 17°29' W 063°01'0 0.1
2018-May-21 23:13N 17°29' W 063°01'1 1.3
2018-May-21 22:39N 17°29' W 063°00'0 0.0
2018-May-21 22:18N 17°29' W 063°00'0 0.2
2018-May-21 20:27N 17°29' W 063°00'0 0.0
2018-May-21 19:26N 17°29' W 063°00'0 0.0
2018-May-21 17:58N 17°29' W 063°00'0 0.0
2018-May-21 12:30N 17°29' W 063°00'0 0.0
2018-May-21 11:34N 17°29' W 063°00'0 0.0
2018-May-21 11:29N 17°29' W 063°00'0 0.0
2018-May-21 09:10N 17°29' W 063°00'0 0.1
2018-May-21 08:58N 17°29' W 063°00'0 0.1
2018-May-21 08:27N 17°29' W 063°00'0 0.0
2018-May-21 07:52N 17°29' W 063°00'0 0.1
2018-May-21 07:25N 17°29' W 063°00'0 0.0
2018-May-21 06:43N 17°29' W 063°00'0 0.0
2018-May-21 06:26N 17°29' W 063°00'0 0.0
2018-May-21 05:56N 17°29' W 063°00'0 0.0
2018-May-21 05:07N 17°29' W 063°00'0 0.0
2018-May-21 04:52N 17°29' W 063°00'0 0.0
2018-May-21 04:29N 17°29' W 063°00'0 0.0
2018-May-21 03:37N 17°29' W 063°00'0 0.0
2018-May-21 03:21N 17°29' W 063°00'0 0.0
2018-May-21 02:59N 17°29' W 063°00'0 0.0
2018-May-20 22:09N 17°29' W 063°00'0 0.0
2018-May-20 21:42N 17°29' W 063°00'0 0.0
2018-May-20 21:07N 17°29' W 063°00'1 1.4
2018-May-20 20:42N 17°30' W 063°00'0 1.8
2018-May-20 20:29N 17°30' W 063°00'1 0.6
2018-May-20 18:57N 17°29' W 063°00'0 0.0
2018-May-20 18:29N 17°29' W 063°00'0 0.0
2018-May-20 17:51N 17°29' W 063°00'0 0.0
2018-May-20 15:22N 17°29' W 063°00'0 0.0
2018-May-20 14:48N 17°29' W 063°00'0 0.0
2018-May-20 14:30N 17°29' W 063°00'0 0.0
2018-May-20 13:42N 17°29' W 063°00'0 0.0
2018-May-20 13:07N 17°29' W 063°00'0 0.0
2018-May-20 09:14N 17°29' W 063°00'0 0.0
2018-May-20 08:46N 17°29' W 063°00'0 0.1
2018-May-20 08:27N 17°29' W 063°00'0 0.0
2018-May-20 07:51N 17°29' W 063°00'0 0.0
2018-May-20 07:30N 17°29' W 063°00'0 0.0
2018-May-20 06:48N 17°29' W 063°00'0 0.0
2018-May-20 06:29N 17°29' W 063°00'0 0.0
2018-May-20 05:56N 17°29' W 063°00'0 0.0
2018-May-20 05:22N 17°29' W 063°00'0 0.1
2018-May-20 04:52N 17°29' W 063°00'0 0.0
2018-May-20 04:19N 17°29' W 063°00'0 0.0
2018-May-20 03:54N 17°29' W 063°00'0 0.0
2018-May-20 03:26N 17°29' W 063°00'0 0.0
2018-May-20 02:59N 17°29' W 063°00'0 0.0
2018-May-20 00:30N 17°29' W 063°00'0 0.0
2018-May-20 00:01N 17°29' W 063°00'0 0.3
2018-May-19 23:16N 17°29' W 063°00'0 0.0
2018-May-19 22:56N 17°29' W 063°00'0 0.0
2018-May-19 15:35N 17°29' W 063°00'1 3.7
2018-May-19 15:21N 17°29' W 062°59'1 0.4
2018-May-19 13:22N 17°29' W 063°00'0 0.0
2018-May-19 12:57N 17°29' W 063°00'0 0.0
2018-May-19 09:57N 17°29' W 063°00'0 0.0
2018-May-19 09:26N 17°29' W 063°00'0 0.0
2018-May-19 07:51N 17°29' W 063°00'0 0.1
2018-May-19 07:26N 17°29' W 063°00'0 0.0
2018-May-19 06:52N 17°29' W 063°00'0 0.0
2018-May-19 06:22N 17°29' W 063°00'0 0.0
2018-May-19 05:58N 17°29' W 063°00'0 0.0
2018-May-19 04:52N 17°29' W 063°00'0 0.0
2018-May-19 04:28N 17°29' W 063°00'0 0.0
2018-May-19 03:50N 17°29' W 063°00'0 0.0
2018-May-19 01:21N 17°29' W 063°00'0 0.0
2018-May-19 01:00N 17°29' W 063°00'0 0.0
2018-May-18 22:41N 17°29' W 063°00'0 0.0
2018-May-18 22:16N 17°29' W 063°00'0 0.0
2018-May-18 21:47N 17°29' W 063°00'0 0.0
2018-May-18 21:27N 17°29' W 063°00'0 0.0
2018-May-18 20:55N 17°29' W 063°00'0 0.0
2018-May-18 20:22N 17°29' W 063°00'0 0.0
2018-May-18 19:57N 17°29' W 063°00'0 0.0
2018-May-18 18:50N 17°29' W 063°00'0 0.0
2018-May-18 18:18N 17°29' W 063°00'1 0.1
2018-May-18 05:22N 17°29' W 063°00'0 0.0
2018-May-18 04:50N 17°29' W 063°00'0 0.0
2018-May-18 04:19N 17°29' W 063°00'0 0.0
2018-May-18 03:55N 17°29' W 063°00'0 0.0
2018-May-18 03:24N 17°29' W 063°00'1 0.2
2018-May-18 01:03N 17°29' W 063°01'0 0.7
2018-May-18 00:46N 17°29' W 063°00'0 0.0
2018-May-17 16:47N 17°29' W 063°00'0 0.0
2018-May-17 16:24N 17°29' W 063°00'0 0.0
2018-May-17 13:14N 17°29' W 063°00'0 0.0
2018-May-17 06:03N 17°29' W 063°00'0 2.1
2018-May-17 05:55N 17°29' W 063°00'0 0.9
2018-May-17 05:29N 17°29' W 063°01'0 0.1
2018-May-17 04:59N 17°29' W 063°01'0 0.0
2018-May-17 04:29N 17°29' W 063°01'0 0.0
2018-May-17 03:48N 17°29' W 063°01'0 0.0
2018-May-16 23:11N 17°29' W 063°01'0 0.5
2018-May-16 22:52N 17°29' W 063°00'0 0.8
2018-May-16 22:20N 17°29' W 063°00'0 0.1
2018-May-16 22:01N 17°29' W 063°00'0 0.1
2018-May-16 18:20N 17°29' W 063°00'0 0.0
2018-May-16 17:58N 17°29' W 063°00'0 0.2
2018-May-16 16:03N 17°29' W 063°00'0 2.4
2018-May-16 15:53N 17°29' W 063°00'0 0.0
2018-May-16 15:29N 17°29' W 063°00'0 0.0
2018-May-16 14:46N 17°29' W 063°00'0 0.0
2018-May-16 14:27N 17°29' W 063°00'1 1.5
2018-May-16 14:00N 17°29' W 063°00'1 0.9
2018-May-16 13:25N 17°30' W 063°01'1 1.7
2018-May-16 12:57N 17°29' W 063°00'1 1.6
2018-May-16 12:24N 17°29' W 062°59'1 0.1
2018-May-16 03:55N 17°29' W 063°00'0 0.1
2018-May-16 01:41N 17°29' W 063°00'0 1.2
2018-May-16 01:18N 17°29' W 063°00'0 0.0
2018-May-15 17:10N 17°29' W 063°00'1 1.8
2018-May-15 16:52N 17°29' W 063°00'0 0.0
2018-May-15 16:11N 17°29' W 063°00'0 0.2
2018-May-15 14:03N 17°29' W 063°00'1 8.2
2018-May-15 13:57N 17°29' W 062°59'0 0.2
2018-May-15 13:30N 17°29' W 062°59'1 1.3
2018-May-15 12:47N 17°29' W 063°00'0 0.3
2018-May-15 12:23N 17°29' W 063°00'0 0.0
2018-May-15 11:59N 17°29' W 062°60'0 0.1
2018-May-15 10:46N 17°29' W 063°00'0 0.0
2018-May-15 10:27N 17°29' W 063°00'0 0.0
2018-May-15 09:47N 17°29' W 063°00'0 0.0
2018-May-15 09:05N 17°29' W 063°00'0 0.0
2018-May-15 08:56N 17°29' W 063°00'0 0.0
2018-May-15 08:23N 17°29' W 063°00'0 0.0
2018-May-15 07:47N 17°29' W 063°00'0 0.0
2018-May-15 07:30N 17°29' W 063°00'0 0.0
2018-May-15 06:59N 17°29' W 063°00'0 0.0
2018-May-15 06:30N 17°29' W 063°00'0 0.0
2018-May-15 05:52N 17°29' W 063°00'0 0.0
2018-May-15 05:26N 17°29' W 063°00'0 0.0
2018-May-15 05:00N 17°29' W 063°00'0 0.0
2018-May-15 04:20N 17°29' W 063°00'0 0.0
2018-May-15 03:21N 17°29' W 063°00'0 0.0
2018-May-15 02:58N 17°29' W 063°00'0 0.1
2018-May-15 02:19N 17°29' W 063°00'  
Track history (hours):
 
Tides and Currents Weather Stations Pressure Air Temp Water Temp Dewpoint Dewpoint Depression Visibility Wind Speed Wind Dir Waves Ship Positions

Statia Reliant

Last reported at 2018-May-25 02:15 UTC. Time now 2018-May-25 02:47 UTC.
Position N 17°16' W 062°45'.

Length 27 m; draft 4 m.

Type: Tug. MMSI: 538003903.

Date/timePositionNaut miles runAvg speedWind from/ knotsBaromVisibWave heightAir tempDewpointWater temp
2018-May-25 02:15N 17°16' W 062°45'1 3.8
2018-May-25 01:58N 17°16' W 062°46'19 4.9
2018-May-24 22:10N 17°29' W 063°00'0 0.0
2018-May-24 21:48N 17°29' W 063°00'1 0.2
2018-May-24 17:38N 17°30' W 063°00'1 3.4
2018-May-24 17:27N 17°29' W 063°00'0 0.3
2018-May-24 16:21N 17°29' W 063°00'0 0.0
2018-May-24 16:00N 17°29' W 063°00'0 0.7
2018-May-24 15:27N 17°29' W 062°60'1 1.2
2018-May-24 14:59N 17°29' W 062°59'0 0.0
2018-May-24 14:25N 17°29' W 062°59'1 0.2
2018-May-24 08:47N 17°29' W 063°00'0 0.0
2018-May-24 08:24N 17°29' W 063°00'1 1.2
2018-May-24 07:31N 17°30' W 063°01'1 2.1
2018-May-24 07:10N 17°29' W 063°01'0 1.2
2018-May-24 06:57N 17°29' W 063°00'0 0.0
2018-May-24 05:45N 17°29' W 063°00'0 0.1
2018-May-24 05:24N 17°29' W 063°00'1 0.4
2018-May-24 04:02N 17°29' W 063°00'0 0.0
2018-May-24 04:00N 17°29' W 063°00'0 0.0
2018-May-24 03:14N 17°29' W 063°00'0 0.1
2018-May-24 03:00N 17°29' W 063°00'0 0.0
2018-May-23 22:21N 17°29' W 063°00'0 0.0
2018-May-23 21:54N 17°29' W 063°00'0 1.1
2018-May-23 21:30N 17°29' W 063°00'0 0.4
2018-May-23 20:58N 17°29' W 063°00'0 0.0
2018-May-23 20:17N 17°29' W 063°00'0 0.0
2018-May-23 19:55N 17°29' W 063°00'0 0.0
2018-May-23 19:25N 17°29' W 063°00'0 0.8
2018-May-23 18:49N 17°29' W 063°00'0 0.0
2018-May-23 18:16N 17°29' W 063°00'0 0.0
2018-May-23 18:00N 17°29' W 063°00'0 0.0
2018-May-23 17:20N 17°29' W 063°00'0 0.0
2018-May-23 16:39N 17°29' W 063°00'0 0.0
2018-May-23 16:22N 17°29' W 063°00'0 0.0
2018-May-23 15:59N 17°29' W 063°00'0 0.0
2018-May-23 14:55N 17°29' W 063°00'0 0.1
2018-May-23 13:23N 17°29' W 063°00'0 0.1
2018-May-23 12:51N 17°29' W 063°00'0 0.0
2018-May-23 12:28N 17°29' W 063°00'0 0.0
2018-May-23 11:21N 17°29' W 063°00'0 0.1
2018-May-23 10:27N 17°29' W 063°00'0 0.6
2018-May-23 09:51N 17°29' W 063°00'0 0.0
2018-May-23 09:27N 17°29' W 063°00'0 0.0
2018-May-23 09:00N 17°29' W 063°00'0 0.0
2018-May-23 08:29N 17°29' W 063°00'0 0.0
2018-May-23 07:55N 17°29' W 063°00'0 0.0
2018-May-23 07:13N 17°29' W 063°00'0 0.0
2018-May-23 06:42N 17°29' W 063°00'0 0.1
2018-May-23 06:24N 17°29' W 063°00'0 0.6
2018-May-23 05:51N 17°29' W 063°00'0 0.2
2018-May-23 05:00N 17°29' W 063°00'0 0.0
2018-May-23 04:17N 17°29' W 063°00'0 0.0
2018-May-23 03:55N 17°29' W 063°00'0 0.7
2018-May-23 03:26N 17°29' W 063°00'0 0.0
2018-May-23 00:14N 17°29' W 063°00'0 0.0
2018-May-22 23:58N 17°29' W 063°00'0 0.0
2018-May-22 22:59N 17°29' W 063°00'0 0.0
2018-May-22 22:18N 17°29' W 063°00'0 0.0
2018-May-22 21:59N 17°29' W 063°00'0 0.0
2018-May-22 21:19N 17°29' W 063°00'0 0.1
2018-May-22 20:58N 17°29' W 063°00'0 0.0
2018-May-22 20:17N 17°29' W 063°00'0 0.0
2018-May-22 19:21N 17°29' W 063°00'0 0.3
2018-May-22 18:04N 17°30' W 063°01'1 0.2
2018-May-22 14:10N 17°29' W 063°01'0 0.1
2018-May-22 13:53N 17°29' W 063°01'0 0.0
2018-May-22 12:28N 17°29' W 063°01'0 0.0
2018-May-22 10:16N 17°29' W 063°01'0 0.0
2018-May-22 08:21N 17°29' W 063°01'0 0.0
2018-May-22 07:45N 17°29' W 063°01'0 0.0
2018-May-22 07:25N 17°29' W 063°01'0 0.0
2018-May-22 06:04N 17°29' W 063°01'0 0.1
2018-May-22 05:55N 17°29' W 063°01'0 0.0
2018-May-22 04:28N 17°29' W 063°01'0 0.0
2018-May-22 00:07N 17°29' W 063°01'0 0.1
2018-May-21 23:41N 17°29' W 063°01'0 0.1
2018-May-21 23:13N 17°29' W 063°01'1 1.3
2018-May-21 22:39N 17°29' W 063°00'0 0.0
2018-May-21 22:18N 17°29' W 063°00'0 0.2
2018-May-21 20:27N 17°29' W 063°00'0 0.0
2018-May-21 19:26N 17°29' W 063°00'0 0.0
2018-May-21 17:58N 17°29' W 063°00'0 0.0
2018-May-21 12:30N 17°29' W 063°00'0 0.0
2018-May-21 11:34N 17°29' W 063°00'0 0.0
2018-May-21 11:29N 17°29' W 063°00'0 0.0
2018-May-21 09:10N 17°29' W 063°00'0 0.1
2018-May-21 08:58N 17°29' W 063°00'0 0.1
2018-May-21 08:27N 17°29' W 063°00'0 0.0
2018-May-21 07:52N 17°29' W 063°00'0 0.1
2018-May-21 07:25N 17°29' W 063°00'0 0.0
2018-May-21 06:43N 17°29' W 063°00'0 0.0
2018-May-21 06:26N 17°29' W 063°00'0 0.0
2018-May-21 05:56N 17°29' W 063°00'0 0.0
2018-May-21 05:07N 17°29' W 063°00'0 0.0
2018-May-21 04:52N 17°29' W 063°00'0 0.0
2018-May-21 04:29N 17°29' W 063°00'0 0.0
2018-May-21 03:37N 17°29' W 063°00'0 0.0
2018-May-21 03:21N 17°29' W 063°00'0 0.0
2018-May-21 02:59N 17°29' W 063°00'0 0.0
2018-May-20 22:09N 17°29' W 063°00'0 0.0
2018-May-20 21:42N 17°29' W 063°00'0 0.0
2018-May-20 21:07N 17°29' W 063°00'1 1.4
2018-May-20 20:42N 17°30' W 063°00'0 1.8
2018-May-20 20:29N 17°30' W 063°00'1 0.6
2018-May-20 18:57N 17°29' W 063°00'0 0.0
2018-May-20 18:29N 17°29' W 063°00'0 0.0
2018-May-20 17:51N 17°29' W 063°00'0 0.0
2018-May-20 15:22N 17°29' W 063°00'0 0.0
2018-May-20 14:48N 17°29' W 063°00'0 0.0
2018-May-20 14:30N 17°29' W 063°00'0 0.0
2018-May-20 13:42N 17°29' W 063°00'0 0.0
2018-May-20 13:07N 17°29' W 063°00'0 0.0
2018-May-20 09:14N 17°29' W 063°00'0 0.0
2018-May-20 08:46N 17°29' W 063°00'0 0.1
2018-May-20 08:27N 17°29' W 063°00'0 0.0
2018-May-20 07:51N 17°29' W 063°00'0 0.0
2018-May-20 07:30N 17°29' W 063°00'0 0.0
2018-May-20 06:48N 17°29' W 063°00'0 0.0
2018-May-20 06:29N 17°29' W 063°00'0 0.0
2018-May-20 05:56N 17°29' W 063°00'0 0.0
2018-May-20 05:22N 17°29' W 063°00'0 0.1
2018-May-20 04:52N 17°29' W 063°00'0 0.0
2018-May-20 04:19N 17°29' W 063°00'0 0.0
2018-May-20 03:54N 17°29' W 063°00'0 0.0
2018-May-20 03:26N 17°29' W 063°00'0 0.0
2018-May-20 02:59N 17°29' W 063°00'0 0.0
2018-May-20 00:30N 17°29' W 063°00'0 0.0
2018-May-20 00:01N 17°29' W 063°00'0 0.3
2018-May-19 23:16N 17°29' W 063°00'0 0.0
2018-May-19 22:56N 17°29' W 063°00'0 0.0
2018-May-19 15:35N 17°29' W 063°00'1 3.7
2018-May-19 15:21N 17°29' W 062°59'1 0.4
2018-May-19 13:22N 17°29' W 063°00'0 0.0
2018-May-19 12:57N 17°29' W 063°00'0 0.0
2018-May-19 09:57N 17°29' W 063°00'0 0.0
2018-May-19 09:26N 17°29' W 063°00'0 0.0
2018-May-19 07:51N 17°29' W 063°00'0 0.1
2018-May-19 07:26N 17°29' W 063°00'0 0.0
2018-May-19 06:52N 17°29' W 063°00'0 0.0
2018-May-19 06:22N 17°29' W 063°00'0 0.0
2018-May-19 05:58N 17°29' W 063°00'0 0.0
2018-May-19 04:52N 17°29' W 063°00'0 0.0
2018-May-19 04:28N 17°29' W 063°00'0 0.0
2018-May-19 03:50N 17°29' W 063°00'0 0.0
2018-May-19 01:21N 17°29' W 063°00'0 0.0
2018-May-19 01:00N 17°29' W 063°00'0 0.0
2018-May-18 22:41N 17°29' W 063°00'0 0.0
2018-May-18 22:16N 17°29' W 063°00'0 0.0
2018-May-18 21:47N 17°29' W 063°00'0 0.0
2018-May-18 21:27N 17°29' W 063°00'0 0.0
2018-May-18 20:55N 17°29' W 063°00'0 0.0
2018-May-18 20:22N 17°29' W 063°00'0 0.0
2018-May-18 19:57N 17°29' W 063°00'0 0.0
2018-May-18 18:50N 17°29' W 063°00'0 0.0
2018-May-18 18:18N 17°29' W 063°00'1 0.1
2018-May-18 05:22N 17°29' W 063°00'0 0.0
2018-May-18 04:50N 17°29' W 063°00'0 0.0
2018-May-18 04:19N 17°29' W 063°00'0 0.0
2018-May-18 03:55N 17°29' W 063°00'0 0.0
2018-May-18 03:24N 17°29' W 063°00'1 0.2
2018-May-18 01:03N 17°29' W 063°01'0 0.7
2018-May-18 00:46N 17°29' W 063°00'0 0.0
2018-May-17 16:47N 17°29' W 063°00'0 0.0
2018-May-17 16:24N 17°29' W 063°00'0 0.0
2018-May-17 13:14N 17°29' W 063°00'0 0.0
2018-May-17 06:03N 17°29' W 063°00'0 2.1
2018-May-17 05:55N 17°29' W 063°00'0 0.9
2018-May-17 05:29N 17°29' W 063°01'0 0.1
2018-May-17 04:59N 17°29' W 063°01'0 0.0
2018-May-17 04:29N 17°29' W 063°01'0 0.0
2018-May-17 03:48N 17°29' W 063°01'0 0.0
2018-May-16 23:11N 17°29' W 063°01'0 0.5
2018-May-16 22:52N 17°29' W 063°00'0 0.8
2018-May-16 22:20N 17°29' W 063°00'0 0.1
2018-May-16 22:01N 17°29' W 063°00'0 0.1
2018-May-16 18:20N 17°29' W 063°00'0 0.0
2018-May-16 17:58N 17°29' W 063°00'0 0.2
2018-May-16 16:03N 17°29' W 063°00'0 2.4
2018-May-16 15:53N 17°29' W 063°00'0 0.0
2018-May-16 15:29N 17°29' W 063°00'0 0.0
2018-May-16 14:46N 17°29' W 063°00'0 0.0
2018-May-16 14:27N 17°29' W 063°00'1 1.5
2018-May-16 14:00N 17°29' W 063°00'1 0.9
2018-May-16 13:25N 17°30' W 063°01'1 1.7
2018-May-16 12:57N 17°29' W 063°00'1 1.6
2018-May-16 12:24N 17°29' W 062°59'1 0.1
2018-May-16 03:55N 17°29' W 063°00'0 0.1
2018-May-16 01:41N 17°29' W 063°00'0 1.2
2018-May-16 01:18N 17°29' W 063°00'0 0.0
2018-May-15 17:10N 17°29' W 063°00'1 1.8
2018-May-15 16:52N 17°29' W 063°00'0 0.0
2018-May-15 16:11N 17°29' W 063°00'0 0.2
2018-May-15 14:03N 17°29' W 063°00'1 8.2
2018-May-15 13:57N 17°29' W 062°59'0 0.2
2018-May-15 13:30N 17°29' W 062°59'1 1.3
2018-May-15 12:47N 17°29' W 063°00'0 0.3
2018-May-15 12:23N 17°29' W 063°00'0 0.0
2018-May-15 11:59N 17°29' W 062°60'0 0.1
2018-May-15 10:46N 17°29' W 063°00'0 0.0
2018-May-15 10:27N 17°29' W 063°00'0 0.0
2018-May-15 09:47N 17°29' W 063°00'0 0.0
2018-May-15 09:05N 17°29' W 063°00'0 0.0
2018-May-15 08:56N 17°29' W 063°00'0 0.0
2018-May-15 08:23N 17°29' W 063°00'0 0.0
2018-May-15 07:47N 17°29' W 063°00'0 0.0
2018-May-15 07:30N 17°29' W 063°00'0 0.0
2018-May-15 06:59N 17°29' W 063°00'0 0.0
2018-May-15 06:30N 17°29' W 063°00'0 0.0
2018-May-15 05:52N 17°29' W 063°00'0 0.0
2018-May-15 05:26N 17°29' W 063°00'0 0.0
2018-May-15 05:00N 17°29' W 063°00'0 0.0
2018-May-15 04:20N 17°29' W 063°00'0 0.0
2018-May-15 03:21N 17°29' W 063°00'0 0.0
2018-May-15 02:58N 17°29' W 063°00'0 0.1
2018-May-15 02:19N 17°29' W 063°00'  

Dump ship's entire track history